createdAt,value
2022-11-23T00:00:50.631Z,68.83
2022-11-23T00:03:18.520Z,75.47
2022-11-23T00:05:46.543Z,74.33
2022-11-23T00:08:14.438Z,59.40
2022-11-23T00:10:44.064Z,72.23
2022-11-23T00:13:11.938Z,68.83
2022-11-23T00:15:42.191Z,64.40
2022-11-23T00:18:10.075Z,65.83
2022-11-23T00:20:40.650Z,78.33
2022-11-23T00:23:08.747Z,68.40
2022-11-23T00:25:36.862Z,70.20
2022-11-23T00:28:06.426Z,73.97
2022-11-23T00:30:34.358Z,72.43
2022-11-23T00:33:02.243Z,74.93
2022-11-23T00:35:30.130Z,70.60
2022-11-23T00:37:58.017Z,71.60
2022-11-23T00:40:25.937Z,75.70
2022-11-23T00:42:53.842Z,76.07
2022-11-23T00:45:23.072Z,78.03
2022-11-23T00:47:51.206Z,81.20
2022-11-23T00:50:19.247Z,78.13
2022-11-23T00:52:47.150Z,73.27
2022-11-23T00:55:15.069Z,81.37
2022-11-23T00:57:42.979Z,81.60
2022-11-23T01:00:12.596Z,70.03
2022-11-23T01:02:41.815Z,76.43
2022-11-23T01:05:10.241Z,89.13
2022-11-23T01:07:38.280Z,80.53
2022-11-23T01:10:08.190Z,77.23
2022-11-23T01:12:36.125Z,79.77
2022-11-23T01:15:04.143Z,84.77
2022-11-23T01:17:32.071Z,93.37
2022-11-23T01:20:01.305Z,84.13
2022-11-23T01:22:29.285Z,85.97
2022-11-23T01:24:57.166Z,81.10
2022-11-23T01:27:25.064Z,82.77
2022-11-23T01:29:52.921Z,83.00
2022-11-23T01:32:20.780Z,81.27
2022-11-23T01:34:48.682Z,86.50
2022-11-23T01:37:17.941Z,77.80
2022-11-23T01:39:45.866Z,72.67
2022-11-23T01:42:17.742Z,83.63
2022-11-23T01:44:46.011Z,83.27
2022-11-23T01:47:13.875Z,90.23
2022-11-23T01:49:44.775Z,88.80
2022-11-23T01:52:16.270Z,77.70
2022-11-23T01:54:49.434Z,85.37
2022-11-23T01:57:21.476Z,94.13
2022-11-23T01:59:49.988Z,77.70
2022-11-23T02:02:18.895Z,72.17
2022-11-23T02:04:51.584Z,82.33
2022-11-23T02:07:21.628Z,83.57
2022-11-23T02:09:51.816Z,104.57
2022-11-23T02:12:20.029Z,83.77
2022-11-23T02:14:48.019Z,81.47
2022-11-23T02:17:16.734Z,93.63
2022-11-23T02:19:56.286Z,84.27
2022-11-23T02:22:30.434Z,91.67
2022-11-23T02:25:03.399Z,94.50
2022-11-23T02:27:32.874Z,95.77
2022-11-23T02:30:01.946Z,80.27
2022-11-23T02:32:30.798Z,102.07
2022-11-23T02:34:58.724Z,96.23
2022-11-23T02:37:26.790Z,95.13
2022-11-23T02:39:57.891Z,103.17
2022-11-23T02:42:28.802Z,92.77
2022-11-23T02:45:07.721Z,107.80
2022-11-23T02:47:35.622Z,83.80
2022-11-23T02:52:48.619Z,100.97
2022-11-23T02:55:16.666Z,95.80
2022-11-23T02:57:44.554Z,94.43
2022-11-23T03:00:15.056Z,88.83
2022-11-23T03:02:43.190Z,91.43
2022-11-23T03:05:11.278Z,116.07
2022-11-23T03:07:39.245Z,99.53
2022-11-23T03:10:08.385Z,101.13
2022-11-23T03:12:36.310Z,97.40
2022-11-23T03:15:04.882Z,105.63
2022-11-23T03:17:35.342Z,104.10
2022-11-23T03:20:03.357Z,109.87
2022-11-23T03:22:31.613Z,89.20
2022-11-23T03:24:59.512Z,99.07
2022-11-23T03:27:27.451Z,103.10
2022-11-23T03:29:55.344Z,101.43
2022-11-23T03:32:23.345Z,109.00
2022-11-23T03:34:52.593Z,103.83
2022-11-23T03:37:20.509Z,106.13
2022-11-23T03:39:48.399Z,113.17
2022-11-23T03:42:16.290Z,88.07
2022-11-23T03:44:44.201Z,118.03
2022-11-23T03:47:12.477Z,100.30
2022-11-23T03:49:40.373Z,105.47
2022-11-23T03:52:09.820Z,106.23
2022-11-23T03:54:37.698Z,104.57
2022-11-23T03:57:05.633Z,102.23
2022-11-23T03:59:33.928Z,99.07
2022-11-23T04:02:02.130Z,99.53
2022-11-23T04:04:30.005Z,109.57
2022-11-23T04:06:57.970Z,99.83
2022-11-23T04:09:27.232Z,99.47
2022-11-23T04:11:55.349Z,105.50
2022-11-23T04:14:23.237Z,95.23
2022-11-23T04:16:51.130Z,110.10
2022-11-23T04:19:19.012Z,102.10
2022-11-23T04:21:46.897Z,86.23
2022-11-23T04:24:14.789Z,98.33
2022-11-23T04:26:44.036Z,98.97
2022-11-23T04:29:11.996Z,98.03
2022-11-23T04:31:39.893Z,76.47
2022-11-23T04:34:07.784Z,91.57
2022-11-23T04:36:35.745Z,92.77
2022-11-23T04:39:04.172Z,83.93
2022-11-23T04:41:32.119Z,82.60
2022-11-23T04:44:01.356Z,91.50
2022-11-23T04:46:29.276Z,95.20
2022-11-23T04:48:57.180Z,103.10
2022-11-23T04:51:25.144Z,105.07
2022-11-23T04:53:53.056Z,96.63
2022-11-23T04:56:20.989Z,85.33
2022-11-23T04:58:48.921Z,91.13
2022-11-23T05:01:18.209Z,99.47
2022-11-23T05:03:46.104Z,100.63
2022-11-23T05:06:14.049Z,91.63
2022-11-23T05:08:42.083Z,102.60
2022-11-23T05:11:10.131Z,87.73
2022-11-23T05:13:38.015Z,78.30
2022-11-23T05:16:06.271Z,114.27
2022-11-23T05:18:35.487Z,83.07
2022-11-23T05:21:03.394Z,80.57
2022-11-23T05:23:31.358Z,82.23
2022-11-23T05:25:59.264Z,99.23
2022-11-23T05:28:42.518Z,76.83
2022-11-23T05:31:10.710Z,91.53
2022-11-23T05:33:39.995Z,103.30
2022-11-23T05:36:08.550Z,91.87
2022-11-23T05:38:36.630Z,82.80
2022-11-23T05:41:04.534Z,93.43
2022-11-23T05:43:32.472Z,86.00
2022-11-23T05:46:00.628Z,80.97
2022-11-23T05:48:28.607Z,83.67
2022-11-23T05:51:03.594Z,87.37
2022-11-23T05:53:32.165Z,87.50
2022-11-23T05:56:01.482Z,80.00
2022-11-23T05:58:29.489Z,90.33
2022-11-23T06:00:59.989Z,81.73
2022-11-23T06:03:28.191Z,80.90
2022-11-23T06:05:57.442Z,66.30
2022-11-23T06:08:25.359Z,80.13
2022-11-23T06:10:53.233Z,78.60
2022-11-23T06:13:21.133Z,85.57
2022-11-23T06:15:49.014Z,102.47
2022-11-23T06:18:16.910Z,78.83
2022-11-23T06:20:44.793Z,82.03
2022-11-23T06:23:14.098Z,84.70
2022-11-23T06:25:42.118Z,82.17
2022-11-23T06:28:10.727Z,76.53
2022-11-23T06:30:38.668Z,73.60
2022-11-23T06:33:06.671Z,73.97
2022-11-23T06:35:34.559Z,79.33
2022-11-23T06:38:02.647Z,82.80
2022-11-23T06:40:31.914Z,83.40
2022-11-23T06:43:00.958Z,85.97
2022-11-23T06:45:29.165Z,70.57
2022-11-23T06:47:57.392Z,69.77
2022-11-23T06:50:25.348Z,74.07
2022-11-23T06:52:56.641Z,86.17
2022-11-23T06:55:24.628Z,80.40
2022-11-23T06:57:53.864Z,80.37
2022-11-23T07:00:21.963Z,81.20
2022-11-23T07:02:53.219Z,80.30
2022-11-23T07:05:21.340Z,83.67
2022-11-23T07:07:49.335Z,83.90
2022-11-23T07:10:18.035Z,81.00
2022-11-23T07:12:46.108Z,98.03
2022-11-23T07:15:15.396Z,72.63
2022-11-23T07:17:44.446Z,78.27
2022-11-23T07:20:14.466Z,75.00
2022-11-23T07:22:42.524Z,87.77
2022-11-23T07:25:11.529Z,82.10
2022-11-23T07:27:39.412Z,90.43
2022-11-23T07:30:08.700Z,83.17
2022-11-23T07:32:37.927Z,80.43
2022-11-23T07:35:06.568Z,86.37
2022-11-23T07:37:34.493Z,80.43
2022-11-23T07:40:02.834Z,90.63
2022-11-23T07:42:33.955Z,90.37
2022-11-23T07:45:04.054Z,123.07
2022-11-23T07:47:32.128Z,88.63
2022-11-23T07:50:01.393Z,95.07
2022-11-23T07:52:30.321Z,92.20
2022-11-23T07:55:00.249Z,66.93
2022-11-23T07:57:28.593Z,66.43
2022-11-23T07:59:56.484Z,75.57
2022-11-23T08:02:24.452Z,70.00
2022-11-23T08:04:52.417Z,65.47
2022-11-23T08:07:21.787Z,78.63
2022-11-23T08:09:50.457Z,69.27
2022-11-23T08:12:18.366Z,88.27
2022-11-23T08:14:46.325Z,79.73
2022-11-23T08:17:14.255Z,86.73
2022-11-23T08:19:42.128Z,86.63
2022-11-23T08:22:14.671Z,87.57
2022-11-23T08:24:45.007Z,82.63
2022-11-23T08:27:12.907Z,93.10
2022-11-23T08:29:40.898Z,76.43
2022-11-23T08:32:08.830Z,85.50
2022-11-23T08:34:36.707Z,75.63
2022-11-23T08:37:04.636Z,77.77
2022-11-23T08:39:32.519Z,93.87
2022-11-23T08:42:01.795Z,88.23
2022-11-23T08:44:30.427Z,81.53
2022-11-23T08:46:58.670Z,83.43
2022-11-23T08:49:26.587Z,80.70
2022-11-23T08:51:54.671Z,71.37
2022-11-23T08:54:24.258Z,78.17
2022-11-23T08:56:52.280Z,77.70
2022-11-23T08:59:21.541Z,70.53
2022-11-23T09:01:49.564Z,43.53
2022-11-23T09:04:20.644Z,78.03
2022-11-23T09:06:49.010Z,67.90
2022-11-23T09:09:16.899Z,94.47
2022-11-23T09:11:44.936Z,77.07
2022-11-23T09:14:12.834Z,80.80
2022-11-23T09:16:42.167Z,76.67
2022-11-23T09:19:13.851Z,89.07
2022-11-23T09:21:42.883Z,69.57
2022-11-23T09:24:12.467Z,79.83
2022-11-23T09:26:40.685Z,81.73
2022-11-23T09:29:09.563Z,76.53
2022-11-23T09:31:37.776Z,65.33
2022-11-23T09:34:07.201Z,64.10
2022-11-23T09:36:35.100Z,69.83
2022-11-23T09:39:03.041Z,60.77
2022-11-23T09:41:55.140Z,62.70
2022-11-23T09:44:29.539Z,61.53
2022-11-23T09:47:13.339Z,57.53
2022-11-23T09:49:51.126Z,72.90
2022-11-23T09:52:22.172Z,54.40
2022-11-23T09:54:53.728Z,69.57
2022-11-23T09:57:27.308Z,78.40
2022-11-23T10:00:01.307Z,58.87
2022-11-23T10:02:30.229Z,59.73
2022-11-23T10:05:02.189Z,60.10
2022-11-23T10:07:45.088Z,60.93
2022-11-23T10:10:26.391Z,58.37
2022-11-23T10:13:03.187Z,58.43
2022-11-23T10:15:38.860Z,53.07
2022-11-23T10:18:24.966Z,61.47
2022-11-23T10:21:05.025Z,62.30
2022-11-23T10:23:48.100Z,65.00
2022-11-23T10:26:18.437Z,74.27
2022-11-23T10:28:48.174Z,58.10
2022-11-23T10:31:18.509Z,64.77
2022-11-23T10:33:55.689Z,54.37
2022-11-23T10:36:25.014Z,67.03
2022-11-23T10:38:58.656Z,58.23
2022-11-23T10:41:26.735Z,59.50
2022-11-23T10:44:03.543Z,69.17
2022-11-23T10:46:38.514Z,64.43
2022-11-23T10:49:18.672Z,64.17
2022-11-23T10:51:56.847Z,60.80
2022-11-23T10:54:31.324Z,58.13
2022-11-23T10:57:00.701Z,55.07
2022-11-23T10:59:37.623Z,53.90
2022-11-23T11:02:22.320Z,60.37
2022-11-23T11:04:58.470Z,69.23
2022-11-23T11:07:30.880Z,63.73
2022-11-23T11:10:00.631Z,61.33
2022-11-23T11:12:30.428Z,58.07
2022-11-23T11:15:17.432Z,63.47
2022-11-23T11:17:45.325Z,63.60
2022-11-23T11:20:31.440Z,64.63
2022-11-23T11:23:03.293Z,59.30
2022-11-23T11:25:33.877Z,62.87
2022-11-23T11:28:03.404Z,62.13
2022-11-23T11:30:39.669Z,72.23
2022-11-23T11:33:15.748Z,64.73
2022-11-23T11:35:47.573Z,74.63
2022-11-23T11:38:21.941Z,72.30
2022-11-23T11:40:51.474Z,72.53
2022-11-23T11:43:27.146Z,66.33
2022-11-23T11:48:54.738Z,68.67
2022-11-23T11:51:28.530Z,61.27
2022-11-23T11:54:04.143Z,69.57
2022-11-23T11:56:35.993Z,71.40
2022-11-23T11:59:13.183Z,64.63
2022-11-23T12:01:49.287Z,61.63
2022-11-23T12:04:24.562Z,55.17
2022-11-23T12:06:57.232Z,52.93
2022-11-23T12:09:32.838Z,62.93
2022-11-23T12:12:00.942Z,62.57
2022-11-23T12:14:28.981Z,65.20
2022-11-23T12:17:31.556Z,65.37
2022-11-23T12:20:03.339Z,57.23
2022-11-23T12:22:44.690Z,63.40
2022-11-23T12:25:25.752Z,61.47
2022-11-23T12:28:05.463Z,55.43
2022-11-23T12:30:43.844Z,66.97
2022-11-23T12:33:30.943Z,62.87
2022-11-23T12:36:19.052Z,62.93
2022-11-23T12:38:56.077Z,55.00
2022-11-23T12:41:33.806Z,56.23
2022-11-23T12:44:43.576Z,57.53
2022-11-23T12:47:23.798Z,54.80
2022-11-23T12:49:55.059Z,56.17
2022-11-23T12:52:39.713Z,62.00
2022-11-23T12:55:20.423Z,58.23
2022-11-23T12:57:55.478Z,56.57
2022-11-23T13:00:24.087Z,55.27
2022-11-23T13:03:13.671Z,53.93
2022-11-23T13:06:07.921Z,48.23
2022-11-23T13:08:58.581Z,47.97
2022-11-23T13:11:42.585Z,50.93
2022-11-23T13:14:23.607Z,55.80
2022-11-23T13:17:09.524Z,52.50
2022-11-23T13:19:54.904Z,47.50
2022-11-23T13:22:24.704Z,54.23
2022-11-23T13:25:14.671Z,50.27
2022-11-23T13:27:56.115Z,50.97
2022-11-23T13:30:51.991Z,56.30
2022-11-23T13:33:31.783Z,53.70
2022-11-23T13:36:10.101Z,48.13
2022-11-23T13:38:42.930Z,50.27
2022-11-23T13:41:55.979Z,53.83
2022-11-23T13:44:29.394Z,53.30
2022-11-23T13:47:20.087Z,51.87
2022-11-23T13:49:50.108Z,47.40
2022-11-23T13:52:27.532Z,54.87
2022-11-23T13:55:09.024Z,49.57
2022-11-23T13:57:39.003Z,49.20
2022-11-23T14:00:43.668Z,50.03
2022-11-23T14:04:00.555Z,49.37
2022-11-23T14:06:45.041Z,58.77
2022-11-23T14:09:19.324Z,58.20
2022-11-23T14:11:59.542Z,95.13
2022-11-23T14:14:32.141Z,95.40
2022-11-23T14:17:22.408Z,101.37
2022-11-23T14:20:07.006Z,96.10
2022-11-23T14:22:46.615Z,73.97
2022-11-23T14:25:29.152Z,57.93
2022-11-23T14:28:04.685Z,55.00
2022-11-23T14:30:44.377Z,54.63
2022-11-23T14:33:23.803Z,56.17
2022-11-23T14:36:00.493Z,55.43
2022-11-23T14:38:57.829Z,52.87
2022-11-23T14:41:29.445Z,50.77
2022-11-23T14:44:01.430Z,39.70
2022-11-23T14:46:29.348Z,51.03
2022-11-23T14:49:05.125Z,43.90
2022-11-23T14:51:34.826Z,52.07
2022-11-23T14:54:10.556Z,59.07
2022-11-23T14:56:43.847Z,51.30
2022-11-23T14:59:21.919Z,44.27
2022-11-23T15:01:54.126Z,46.47
2022-11-23T15:04:28.990Z,45.00
2022-11-23T15:07:02.912Z,57.63
2022-11-23T15:09:45.799Z,51.77
2022-11-23T15:12:23.963Z,48.93
2022-11-23T15:14:53.896Z,44.53
2022-11-23T15:17:23.288Z,50.43
2022-11-23T15:19:55.951Z,49.20
2022-11-23T15:22:27.011Z,46.97
2022-11-23T15:25:06.518Z,43.90
2022-11-23T15:27:34.529Z,43.20
2022-11-23T15:30:02.612Z,43.43
2022-11-23T15:32:34.193Z,46.23
2022-11-23T15:35:06.658Z,37.53
2022-11-23T15:37:42.196Z,47.07
2022-11-23T15:40:15.912Z,41.77
2022-11-23T15:42:44.793Z,40.93
2022-11-23T15:45:35.365Z,49.53
2022-11-23T15:48:05.378Z,51.23
2022-11-23T15:50:34.399Z,51.77
2022-11-23T15:53:03.179Z,44.07
2022-11-23T15:55:32.457Z,53.40
2022-11-23T15:58:02.486Z,51.70
2022-11-23T16:00:30.682Z,47.57
2022-11-23T16:03:27.673Z,39.37
2022-11-23T16:06:20.604Z,45.33
2022-11-23T16:08:48.558Z,43.37
2022-11-23T16:11:30.166Z,44.00
2022-11-23T16:14:15.871Z,37.90
2022-11-23T16:16:46.372Z,40.73
2022-11-23T16:19:24.233Z,48.27
2022-11-23T16:22:01.752Z,40.00
2022-11-23T16:24:32.521Z,37.27
2022-11-23T16:27:02.817Z,43.67
2022-11-23T16:29:35.163Z,47.63
2022-11-23T16:32:06.957Z,50.80
2022-11-23T16:34:35.436Z,52.27
2022-11-23T16:37:04.519Z,56.23
2022-11-23T16:39:32.452Z,44.60
2022-11-23T16:42:00.339Z,46.57
2022-11-23T16:44:31.237Z,39.30
2022-11-23T16:47:21.092Z,40.17
2022-11-23T16:49:49.500Z,42.37
2022-11-23T16:52:17.577Z,45.40
2022-11-23T16:54:45.460Z,46.87
2022-11-23T16:57:21.233Z,52.23
2022-11-23T16:59:50.756Z,45.53
2022-11-23T17:02:19.139Z,49.90
2022-11-23T17:04:47.224Z,42.80
2022-11-23T17:07:16.810Z,42.20
2022-11-23T17:09:44.746Z,54.73
2022-11-23T17:12:17.757Z,46.53
2022-11-23T17:14:48.749Z,52.40
2022-11-23T17:17:21.575Z,46.37
2022-11-23T17:19:50.519Z,48.57
2022-11-23T17:22:19.311Z,46.00
2022-11-23T17:24:48.224Z,51.10
2022-11-23T17:27:18.056Z,51.13
2022-11-23T17:29:47.129Z,52.20
2022-11-23T17:32:15.859Z,56.97
2022-11-23T17:34:45.232Z,46.40
2022-11-23T17:37:19.817Z,52.60
2022-11-23T17:39:47.998Z,46.83
2022-11-23T17:42:16.517Z,52.53
2022-11-23T17:44:44.589Z,47.53
2022-11-23T17:47:22.143Z,51.60
2022-11-23T17:49:51.490Z,44.80
2022-11-23T17:52:19.531Z,51.43
2022-11-23T17:54:47.490Z,48.80
2022-11-23T17:57:16.469Z,48.03
2022-11-23T17:59:44.889Z,47.17
2022-11-23T18:02:12.821Z,45.43
2022-11-23T18:04:40.749Z,39.87
2022-11-23T18:07:13.963Z,49.27
2022-11-23T18:09:42.269Z,48.90
2022-11-23T18:12:10.786Z,48.83
2022-11-23T18:14:38.792Z,53.17
2022-11-23T18:17:07.361Z,43.30
2022-11-23T18:19:35.454Z,51.57
2022-11-23T18:22:03.572Z,47.73
2022-11-23T18:24:32.878Z,49.37
2022-11-23T18:27:00.795Z,46.53
2022-11-23T18:29:28.706Z,49.30
2022-11-23T18:31:56.627Z,43.97
2022-11-23T18:34:24.822Z,49.67
2022-11-23T18:36:52.718Z,49.30
2022-11-23T18:39:20.577Z,48.50
2022-11-23T18:41:49.822Z,59.63
2022-11-23T18:44:17.790Z,53.60
2022-11-23T18:46:45.963Z,53.07
2022-11-23T18:49:14.152Z,51.77
2022-11-23T18:51:42.050Z,59.97
2022-11-23T18:54:09.944Z,58.37
2022-11-23T18:56:37.869Z,59.73
2022-11-23T18:59:07.877Z,58.87
2022-11-23T19:01:35.806Z,55.00
2022-11-23T19:04:03.860Z,61.23
2022-11-23T19:06:34.366Z,64.73
2022-11-23T19:09:02.978Z,62.47
2022-11-23T19:11:30.910Z,63.37
2022-11-23T19:14:01.392Z,58.97
2022-11-23T19:16:32.357Z,58.83
2022-11-23T19:19:02.905Z,57.33
2022-11-23T19:21:32.117Z,63.03
2022-11-23T19:24:01.225Z,64.93
2022-11-23T19:26:30.027Z,63.87
2022-11-23T19:28:58.985Z,59.87
2022-11-23T19:31:28.855Z,56.43
2022-11-23T19:34:00.897Z,63.20
2022-11-23T19:36:30.776Z,63.63
2022-11-23T19:39:00.297Z,56.70
2022-11-23T19:41:30.726Z,61.20
2022-11-23T19:44:00.452Z,61.60
2022-11-23T19:46:29.674Z,61.73
2022-11-23T19:48:59.811Z,58.60
2022-11-23T19:51:28.681Z,54.77
2022-11-23T19:53:57.948Z,59.00
2022-11-23T19:56:28.800Z,66.90
2022-11-23T19:58:58.567Z,67.47
2022-11-23T20:01:28.625Z,69.37
2022-11-23T20:04:07.881Z,87.93
2022-11-23T20:06:38.150Z,74.90
2022-11-23T20:09:08.168Z,82.07
2022-11-23T20:11:37.456Z,78.33
2022-11-23T20:14:05.350Z,74.73
2022-11-23T20:16:34.305Z,84.37
2022-11-23T20:19:05.404Z,73.73
2022-11-23T20:21:34.733Z,75.77
2022-11-23T20:24:05.883Z,81.77
2022-11-23T20:26:34.536Z,73.90
2022-11-23T20:29:02.476Z,77.20
2022-11-23T20:31:32.263Z,76.00
2022-11-23T20:34:00.594Z,80.50
2022-11-23T20:36:31.545Z,74.73
2022-11-23T20:39:02.828Z,64.97
2022-11-23T20:41:32.725Z,59.70
2022-11-23T20:44:03.017Z,59.70
2022-11-23T20:49:20.708Z,62.77
2022-11-23T20:51:49.938Z,67.87
2022-11-23T20:54:17.823Z,55.20
2022-11-23T20:56:45.739Z,60.60
2022-11-23T20:59:13.772Z,62.53
2022-11-23T21:01:41.774Z,60.00
2022-11-23T21:04:10.061Z,51.60
2022-11-23T21:06:39.764Z,56.10
2022-11-23T21:09:11.149Z,57.73
2022-11-23T21:11:56.814Z,59.10
2022-11-23T21:14:30.636Z,57.53
2022-11-23T21:17:00.236Z,63.77
2022-11-23T21:19:29.420Z,60.80
2022-11-23T21:21:58.264Z,51.83
2022-11-23T21:24:29.192Z,58.63
2022-11-23T21:26:57.084Z,60.40
2022-11-23T21:29:25.968Z,51.83
2022-11-23T21:31:53.937Z,61.30
2022-11-23T21:34:24.142Z,56.57
2022-11-23T21:36:52.530Z,55.87
2022-11-23T21:39:21.065Z,65.23
2022-11-23T21:41:52.194Z,59.17
2022-11-23T21:44:20.433Z,58.37
2022-11-23T21:46:48.568Z,55.27
2022-11-23T21:49:16.644Z,55.27
2022-11-23T21:51:45.671Z,63.37
2022-11-23T21:54:15.822Z,56.63
2022-11-23T21:56:44.860Z,51.23
2022-11-23T21:59:14.566Z,58.40
2022-11-23T22:10:58.292Z,52.37
2022-11-23T22:13:27.255Z,54.50
2022-11-23T22:15:57.046Z,53.80
2022-11-23T22:18:25.475Z,49.57
2022-11-23T22:20:53.874Z,47.67
2022-11-23T22:23:23.126Z,45.50
2022-11-23T22:25:51.511Z,49.37
2022-11-23T22:28:20.054Z,51.53
2022-11-23T22:30:54.167Z,52.07
2022-11-23T22:33:23.985Z,45.40
2022-11-23T22:35:52.545Z,52.23
2022-11-23T22:38:20.906Z,45.87
2022-11-23T22:40:49.705Z,58.17
2022-11-23T22:43:18.068Z,48.00
2022-11-23T22:45:46.469Z,51.47
2022-11-23T22:48:14.885Z,63.07
2022-11-23T22:50:45.182Z,48.87
2022-11-23T22:53:13.540Z,47.27
2022-11-23T22:55:41.911Z,138.20
2022-11-23T22:58:10.266Z,60.27
2022-11-23T23:00:38.690Z,57.80
2022-11-23T23:03:07.229Z,62.50
2022-11-23T23:05:35.778Z,52.00
2022-11-23T23:08:05.889Z,59.40
2022-11-23T23:10:35.818Z,54.33
2022-11-23T23:13:04.226Z,56.47
2022-11-23T23:15:32.581Z,58.17
2022-11-23T23:18:00.930Z,55.27
2022-11-23T23:20:29.335Z,91.83
2022-11-23T23:22:57.701Z,102.13
2022-11-23T23:25:27.497Z,62.03
2022-11-23T23:27:56.198Z,97.43
2022-11-23T23:30:24.631Z,49.33
2022-11-23T23:32:57.273Z,54.43
2022-11-23T23:35:25.644Z,52.70
2022-11-23T23:37:54.015Z,65.47
2022-11-23T23:40:22.486Z,61.30
2022-11-23T23:42:52.265Z,76.40
2022-11-23T23:45:20.600Z,58.00
2022-11-23T23:47:49.536Z,56.80
2022-11-23T23:50:18.198Z,55.60
2022-11-23T23:52:46.557Z,50.83
2022-11-23T23:55:14.933Z,71.47
2022-11-23T23:57:43.276Z,75.83
